createdAt,value
2022-12-29T00:00:08.205Z,6.89
2022-12-29T00:01:09.841Z,6.88
2022-12-29T00:02:11.999Z,6.92
2022-12-29T00:03:13.670Z,6.95
2022-12-29T00:04:16.275Z,6.96
2022-12-29T00:05:17.865Z,7.02
2022-12-29T00:06:19.429Z,7.01
2022-12-29T00:07:20.948Z,6.95
2022-12-29T00:08:40.253Z,6.93
2022-12-29T00:09:42.373Z,6.84
2022-12-29T00:10:43.913Z,6.84
2022-12-29T00:11:45.656Z,6.93
2022-12-29T00:13:05.684Z,7.01
2022-12-29T00:14:26.329Z,7.03
2022-12-29T00:15:40.232Z,6.96
2022-12-29T00:16:44.602Z,6.85
2022-12-29T00:17:46.169Z,6.80
2022-12-29T00:18:48.032Z,6.76
2022-12-29T00:20:08.260Z,6.68
2022-12-29T00:21:36.951Z,6.58
2022-12-29T00:22:57.253Z,6.60
2022-12-29T00:24:17.028Z,6.60
2022-12-29T00:25:37.476Z,6.60
2022-12-29T00:26:57.586Z,6.59
2022-12-29T00:28:18.149Z,6.61
2022-12-29T00:29:38.190Z,6.57
2022-12-29T00:30:58.508Z,6.57
2022-12-29T00:32:18.346Z,6.52
2022-12-29T00:33:41.015Z,6.55
2022-12-29T00:35:01.191Z,6.55
2022-12-29T00:36:28.093Z,6.54
2022-12-29T00:37:48.283Z,6.53
2022-12-29T00:39:12.815Z,6.51
2022-12-29T00:40:33.174Z,6.45
2022-12-29T00:41:53.800Z,6.47
2022-12-29T00:43:13.774Z,6.50
2022-12-29T00:44:16.005Z,6.47
2022-12-29T00:45:17.548Z,6.48
2022-12-29T00:46:20.436Z,6.45
2022-12-29T00:47:22.176Z,6.46
2022-12-29T00:48:42.274Z,6.40
2022-12-29T00:49:43.902Z,6.45
2022-12-29T00:50:45.444Z,6.45
2022-12-29T00:51:47.225Z,6.46
2022-12-29T00:52:48.745Z,6.49
2022-12-29T00:53:50.253Z,6.43
2022-12-29T00:54:51.793Z,6.42
2022-12-29T00:55:53.369Z,6.42
2022-12-29T00:56:55.038Z,6.43
2022-12-29T00:57:56.597Z,6.50
2022-12-29T00:59:02.578Z,6.53
2022-12-29T01:00:04.502Z,6.45
2022-12-29T01:01:08.275Z,6.43
2022-12-29T01:02:11.341Z,6.47
2022-12-29T01:03:13.064Z,6.52
2022-12-29T01:04:15.687Z,6.58
2022-12-29T01:05:17.225Z,6.61
2022-12-29T01:06:19.920Z,6.67
2022-12-29T01:07:21.659Z,6.72
2022-12-29T01:08:23.389Z,6.86
2022-12-29T01:09:43.503Z,6.88
2022-12-29T01:10:45.076Z,6.88
2022-12-29T01:11:46.665Z,6.90
2022-12-29T01:12:48.444Z,6.91
2022-12-29T01:13:49.983Z,6.96
2022-12-29T01:14:51.551Z,7.00
2022-12-29T01:15:54.209Z,7.06
2022-12-29T01:16:56.540Z,7.08
2022-12-29T01:17:58.139Z,7.08
2022-12-29T01:19:00.529Z,7.08
2022-12-29T01:20:03.445Z,7.04
2022-12-29T01:21:07.162Z,6.99
2022-12-29T01:22:08.735Z,6.94
2022-12-29T01:23:10.357Z,6.89
2022-12-29T01:24:12.072Z,6.87
2022-12-29T01:25:13.612Z,6.79
2022-12-29T01:26:17.831Z,6.73
2022-12-29T01:27:19.698Z,6.68
2022-12-29T01:28:25.896Z,6.59
2022-12-29T01:29:27.985Z,6.55
2022-12-29T01:30:29.577Z,6.47
2022-12-29T01:31:31.280Z,6.46
2022-12-29T01:32:32.902Z,6.45
2022-12-29T01:33:34.518Z,6.45
2022-12-29T01:34:36.098Z,6.48
2022-12-29T01:35:37.615Z,6.45
2022-12-29T01:36:39.211Z,6.43
2022-12-29T01:37:40.729Z,6.39
2022-12-29T01:38:42.922Z,6.39
2022-12-29T01:39:44.744Z,6.37
2022-12-29T01:40:47.332Z,6.40
2022-12-29T01:41:48.920Z,6.45
2022-12-29T01:42:50.509Z,6.46
2022-12-29T01:43:57.555Z,6.48
2022-12-29T01:45:02.684Z,6.53
2022-12-29T01:46:04.297Z,6.53
2022-12-29T01:47:07.108Z,6.42
2022-12-29T01:48:10.864Z,6.30
2022-12-29T01:49:17.432Z,6.30
2022-12-29T01:50:35.375Z,6.32
2022-12-29T01:51:40.097Z,6.34
2022-12-29T01:52:47.701Z,6.41
2022-12-29T01:53:49.362Z,6.49
2022-12-29T01:54:54.846Z,6.49
2022-12-29T01:56:02.048Z,6.53
2022-12-29T01:57:09.198Z,6.56
2022-12-29T01:58:14.776Z,6.56
2022-12-29T01:59:21.923Z,6.48
2022-12-29T02:00:23.677Z,6.37
2022-12-29T02:01:25.480Z,6.39
2022-12-29T02:02:32.464Z,6.46
2022-12-29T02:03:35.987Z,6.43
2022-12-29T02:04:45.232Z,6.37
2022-12-29T02:06:03.372Z,6.39
2022-12-29T02:07:10.972Z,6.39
2022-12-29T02:08:13.501Z,6.36
2022-12-29T02:09:15.041Z,6.33
2022-12-29T02:10:16.805Z,6.27
2022-12-29T02:11:20.049Z,6.24
2022-12-29T02:12:24.610Z,6.17
2022-12-29T02:13:26.647Z,6.11
2022-12-29T02:14:28.182Z,6.19
2022-12-29T02:15:49.998Z,6.23
2022-12-29T02:17:18.847Z,6.24
2022-12-29T02:18:44.638Z,6.22
2022-12-29T02:20:04.484Z,6.19
2022-12-29T02:21:43.481Z,6.15
2022-12-29T02:23:08.418Z,6.18
2022-12-29T02:24:35.018Z,6.23
2022-12-29T02:25:51.763Z,6.35
2022-12-29T02:26:56.306Z,6.41
2022-12-29T02:28:16.699Z,6.51
2022-12-29T02:29:35.623Z,6.56
2022-12-29T02:30:55.982Z,6.54
2022-12-29T02:32:06.802Z,6.53
2022-12-29T02:33:44.196Z,6.63
2022-12-29T02:35:07.135Z,6.70
2022-12-29T02:36:36.942Z,6.76
2022-12-29T02:37:44.318Z,6.88
2022-12-29T02:39:14.911Z,6.95
2022-12-29T02:40:45.742Z,6.97
2022-12-29T02:42:19.198Z,7.01
2022-12-29T02:43:21.229Z,7.00
2022-12-29T02:44:43.315Z,6.99
2022-12-29T02:46:04.357Z,6.94
2022-12-29T02:47:10.544Z,6.99
2022-12-29T02:48:19.056Z,6.94
2022-12-29T02:49:28.810Z,6.92
2022-12-29T02:50:45.248Z,6.81
2022-12-29T02:51:49.324Z,6.73
2022-12-29T02:52:58.061Z,6.74
2022-12-29T02:54:18.833Z,6.69
2022-12-29T02:55:20.444Z,6.71
2022-12-29T02:56:22.781Z,6.76
2022-12-29T02:57:24.332Z,6.84
2022-12-29T02:58:25.992Z,6.93
2022-12-29T02:59:27.777Z,6.98
2022-12-29T03:00:29.794Z,7.03
2022-12-29T03:02:17.382Z,7.04
2022-12-29T03:03:30.742Z,7.02
2022-12-29T03:04:38.089Z,7.04
2022-12-29T03:06:17.296Z,7.05
2022-12-29T03:07:41.194Z,6.91
2022-12-29T03:08:50.730Z,6.80
2022-12-29T03:10:22.875Z,6.60
2022-12-29T03:11:50.966Z,6.49
2022-12-29T03:13:24.168Z,6.38
2022-12-29T03:14:51.692Z,6.39
2022-12-29T03:16:08.319Z,6.30
2022-12-29T03:17:20.781Z,6.21
2022-12-29T03:18:58.387Z,6.22
2022-12-29T03:20:08.749Z,6.22
2022-12-29T03:21:45.300Z,6.11
2022-12-29T03:22:50.619Z,6.12
2022-12-29T03:23:52.512Z,6.13
2022-12-29T03:25:00.212Z,6.15
2022-12-29T03:26:07.995Z,6.24
2022-12-29T03:27:14.773Z,6.27
2022-12-29T03:28:22.908Z,6.29
2022-12-29T03:29:25.578Z,6.30
2022-12-29T03:30:29.593Z,6.32
2022-12-29T03:31:31.427Z,6.31
2022-12-29T03:32:43.106Z,6.31
2022-12-29T03:33:46.429Z,6.31
2022-12-29T03:34:50.012Z,6.32
2022-12-29T03:35:55.394Z,6.26
2022-12-29T03:37:09.191Z,6.26
2022-12-29T03:38:14.901Z,6.29
2022-12-29T03:39:19.524Z,6.25
2022-12-29T03:40:23.987Z,6.24
2022-12-29T03:41:29.614Z,6.26
2022-12-29T03:42:35.022Z,6.29
2022-12-29T03:43:36.796Z,6.26
2022-12-29T03:44:41.084Z,6.25
2022-12-29T03:45:42.695Z,6.23
2022-12-29T03:46:44.350Z,6.21
2022-12-29T03:47:46.010Z,6.20
2022-12-29T03:48:47.538Z,6.21
2022-12-29T03:49:50.289Z,6.24
2022-12-29T03:50:51.862Z,6.16
2022-12-29T03:51:53.432Z,6.11
2022-12-29T03:52:54.979Z,6.07
2022-12-29T03:53:56.763Z,6.08
2022-12-29T03:54:58.312Z,6.07
2022-12-29T03:55:59.921Z,6.05
2022-12-29T03:57:01.532Z,6.05
2022-12-29T03:58:03.142Z,6.10
2022-12-29T03:59:04.671Z,6.10
2022-12-29T04:00:07.513Z,5.99
2022-12-29T04:01:09.270Z,5.84
2022-12-29T04:02:10.937Z,5.76
2022-12-29T04:03:12.589Z,5.71
2022-12-29T04:04:14.256Z,5.69
2022-12-29T04:05:16.189Z,5.61
2022-12-29T04:06:17.761Z,5.52
2022-12-29T04:07:19.350Z,5.47
2022-12-29T04:08:20.911Z,5.45
2022-12-29T04:09:22.428Z,5.45
2022-12-29T04:10:24.056Z,5.45
2022-12-29T04:11:31.231Z,5.49
2022-12-29T04:12:34.665Z,5.50
2022-12-29T04:13:36.229Z,5.48
2022-12-29T04:14:37.785Z,5.48
2022-12-29T04:15:39.409Z,5.48
2022-12-29T04:16:41.191Z,5.53
2022-12-29T04:17:42.951Z,5.54
2022-12-29T04:18:44.469Z,5.54
2022-12-29T04:19:46.063Z,5.54
2022-12-29T04:21:03.902Z,5.52
2022-12-29T04:22:05.565Z,5.57
2022-12-29T04:23:07.984Z,5.55
2022-12-29T04:24:09.626Z,5.56
2022-12-29T04:25:11.192Z,5.60
2022-12-29T04:26:12.909Z,5.61
2022-12-29T04:27:14.439Z,5.64
2022-12-29T04:28:17.272Z,5.63
2022-12-29T04:29:20.583Z,5.64
2022-12-29T04:30:22.108Z,5.63
2022-12-29T04:31:23.737Z,5.58
2022-12-29T04:32:25.380Z,5.61
2022-12-29T04:33:27.007Z,5.57
2022-12-29T04:34:28.534Z,5.56
2022-12-29T04:35:30.101Z,5.56
2022-12-29T04:36:31.693Z,5.59
2022-12-29T04:37:33.292Z,5.61
2022-12-29T04:38:35.770Z,5.59
2022-12-29T04:39:37.334Z,5.61
2022-12-29T04:40:40.743Z,5.68
2022-12-29T04:41:42.270Z,5.78
2022-12-29T04:42:43.813Z,5.86
2022-12-29T04:43:45.420Z,5.93
2022-12-29T04:44:47.067Z,6.00
2022-12-29T04:45:48.902Z,6.07
2022-12-29T04:46:50.488Z,6.13
2022-12-29T04:47:52.046Z,6.20
2022-12-29T04:48:53.685Z,6.24
2022-12-29T04:49:55.275Z,6.28
2022-12-29T04:50:56.843Z,6.30
2022-12-29T04:51:58.398Z,6.33
2022-12-29T04:52:59.917Z,6.37
2022-12-29T04:54:01.494Z,6.42
2022-12-29T04:55:03.221Z,6.48
2022-12-29T04:56:05.185Z,6.54
2022-12-29T04:57:06.796Z,6.60
2022-12-29T04:58:08.387Z,6.63
2022-12-29T04:59:09.956Z,6.68
2022-12-29T05:00:12.276Z,6.72
2022-12-29T05:01:14.026Z,6.76
2022-12-29T05:02:16.687Z,6.76
2022-12-29T05:03:20.293Z,6.73
2022-12-29T05:04:22.018Z,6.75
2022-12-29T05:05:23.647Z,6.80
2022-12-29T05:06:25.221Z,6.83
2022-12-29T05:07:26.862Z,6.87
2022-12-29T05:08:28.800Z,6.91
2022-12-29T05:09:30.935Z,6.94
2022-12-29T05:10:32.536Z,6.97
2022-12-29T05:11:34.061Z,7.00
2022-12-29T05:12:38.167Z,7.03
2022-12-29T05:13:39.767Z,7.09
2022-12-29T05:14:41.408Z,7.11
2022-12-29T05:15:56.420Z,7.13
2022-12-29T05:17:54.424Z,7.18
2022-12-29T05:18:56.013Z,7.24
2022-12-29T05:19:57.704Z,7.20
2022-12-29T05:20:59.763Z,7.16
2022-12-29T05:22:01.428Z,7.14
2022-12-29T05:23:03.076Z,7.10
2022-12-29T05:24:05.016Z,7.10
2022-12-29T05:25:06.909Z,7.09
2022-12-29T05:26:08.608Z,7.08
2022-12-29T05:27:10.227Z,7.12
2022-12-29T05:28:11.830Z,7.12
2022-12-29T05:29:13.437Z,7.00
2022-12-29T05:30:15.111Z,6.85
2022-12-29T05:31:16.702Z,6.74
2022-12-29T05:32:18.970Z,6.64
2022-12-29T05:33:20.654Z,6.59
2022-12-29T05:34:22.299Z,6.54
2022-12-29T05:35:23.939Z,6.49
2022-12-29T05:36:25.619Z,6.48
2022-12-29T05:37:27.140Z,6.43
2022-12-29T05:38:28.680Z,6.36
2022-12-29T05:39:30.474Z,6.33
2022-12-29T05:40:32.009Z,6.33
2022-12-29T05:41:35.302Z,6.33
2022-12-29T05:42:36.873Z,6.34
2022-12-29T05:43:38.399Z,6.36
2022-12-29T05:44:39.906Z,6.35
2022-12-29T05:45:41.465Z,6.34
2022-12-29T05:46:43.109Z,6.30
2022-12-29T05:47:44.714Z,6.30
2022-12-29T05:48:46.249Z,6.30
2022-12-29T05:49:47.843Z,6.29
2022-12-29T05:50:50.860Z,6.26
2022-12-29T05:52:44.950Z,6.24
2022-12-29T05:53:46.776Z,6.25
2022-12-29T05:54:48.345Z,6.27
2022-12-29T05:55:50.597Z,6.29
2022-12-29T05:56:52.189Z,6.34
2022-12-29T05:57:53.812Z,6.39
2022-12-29T05:58:55.404Z,6.42
2022-12-29T05:59:56.956Z,6.33
2022-12-29T06:00:58.543Z,6.32
2022-12-29T06:02:00.299Z,6.33
2022-12-29T06:03:02.609Z,6.37
2022-12-29T06:04:04.558Z,6.40
2022-12-29T06:05:06.465Z,6.45
2022-12-29T06:06:08.164Z,6.45
2022-12-29T06:07:09.727Z,6.45
2022-12-29T06:08:11.244Z,6.47
2022-12-29T06:09:12.890Z,6.49
2022-12-29T06:10:14.496Z,6.51
2022-12-29T06:11:16.091Z,6.52
2022-12-29T06:12:17.708Z,6.54
2022-12-29T06:13:19.299Z,6.54
2022-12-29T06:14:21.296Z,6.56
2022-12-29T06:15:23.010Z,6.57
2022-12-29T06:16:24.853Z,6.56
2022-12-29T06:17:26.479Z,6.55
2022-12-29T06:18:28.115Z,6.60
2022-12-29T06:19:29.638Z,6.64
2022-12-29T06:20:31.157Z,6.67
2022-12-29T06:21:32.708Z,6.71
2022-12-29T06:22:34.360Z,6.71
2022-12-29T06:23:35.964Z,6.72
2022-12-29T06:24:37.569Z,6.68
2022-12-29T06:25:39.108Z,6.68
2022-12-29T06:26:41.256Z,6.70
2022-12-29T06:27:43.199Z,6.72
2022-12-29T06:28:44.715Z,6.74
2022-12-29T06:29:47.133Z,6.73
2022-12-29T06:30:49.653Z,6.77
2022-12-29T06:31:52.161Z,6.82
2022-12-29T06:32:53.926Z,6.83
2022-12-29T06:33:55.489Z,6.84
2022-12-29T06:34:57.025Z,6.85
2022-12-29T06:35:58.564Z,6.87
2022-12-29T06:37:00.203Z,6.91
2022-12-29T06:38:01.837Z,6.90
2022-12-29T06:39:03.455Z,6.91
2022-12-29T06:40:05.530Z,6.90
2022-12-29T06:41:07.130Z,6.92
2022-12-29T06:42:10.293Z,6.94
2022-12-29T06:43:12.015Z,6.98
2022-12-29T06:44:13.576Z,7.00
2022-12-29T06:45:15.194Z,7.04
2022-12-29T06:46:16.822Z,7.06
2022-12-29T06:47:19.524Z,7.10
2022-12-29T06:48:21.155Z,7.13
2022-12-29T06:49:22.739Z,7.14
2022-12-29T06:50:24.340Z,7.16
2022-12-29T06:51:25.919Z,7.20
2022-12-29T06:52:29.516Z,7.23
2022-12-29T06:53:31.068Z,7.39
2022-12-29T06:54:34.431Z,7.50
2022-12-29T06:55:36.251Z,7.55
2022-12-29T06:56:37.862Z,7.51
2022-12-29T06:57:39.452Z,7.51
2022-12-29T06:58:41.095Z,7.51
2022-12-29T06:59:42.670Z,7.53
2022-12-29T07:00:44.326Z,7.54
2022-12-29T07:01:46.014Z,7.55
2022-12-29T07:02:47.783Z,7.55
2022-12-29T07:03:49.568Z,7.58
2022-12-29T07:04:51.157Z,7.57
2022-12-29T07:05:52.710Z,7.58
2022-12-29T07:06:57.169Z,7.59
2022-12-29T07:07:59.141Z,7.58
2022-12-29T07:09:00.747Z,7.53
2022-12-29T07:10:02.310Z,7.53
2022-12-29T07:11:03.955Z,7.53
2022-12-29T07:12:05.727Z,7.54
2022-12-29T07:13:08.798Z,7.56
2022-12-29T07:14:12.024Z,7.55
2022-12-29T07:15:13.833Z,7.56
2022-12-29T07:16:15.575Z,7.56
2022-12-29T07:17:17.121Z,7.59
2022-12-29T07:18:18.819Z,7.61
2022-12-29T07:19:20.466Z,7.63
2022-12-29T07:20:26.778Z,7.67
2022-12-29T07:21:28.652Z,7.72
2022-12-29T07:22:30.161Z,7.75
2022-12-29T07:23:32.236Z,7.75
2022-12-29T07:24:33.820Z,7.75
2022-12-29T07:25:36.950Z,7.80
2022-12-29T07:26:38.567Z,7.78
2022-12-29T07:27:40.124Z,7.75
2022-12-29T07:28:42.874Z,7.72
2022-12-29T07:29:44.468Z,7.69
2022-12-29T07:30:47.083Z,7.70
2022-12-29T07:31:48.688Z,7.69
2022-12-29T07:32:50.358Z,7.67
2022-12-29T07:33:51.944Z,7.69
2022-12-29T07:34:53.623Z,7.71
2022-12-29T07:35:55.218Z,7.69
2022-12-29T07:36:56.888Z,7.68
2022-12-29T07:37:58.518Z,7.65
2022-12-29T07:39:00.150Z,7.63
2022-12-29T07:40:04.540Z,7.62
2022-12-29T07:41:06.412Z,7.60
2022-12-29T07:42:08.118Z,7.56
2022-12-29T07:43:09.848Z,7.59
2022-12-29T07:44:11.431Z,7.60
2022-12-29T07:45:13.175Z,7.63
2022-12-29T07:46:55.947Z,7.67
2022-12-29T07:47:36.362Z,7.70
2022-12-29T07:48:38.151Z,7.72
2022-12-29T07:49:39.764Z,7.76
2022-12-29T07:50:41.335Z,7.76
2022-12-29T07:51:42.919Z,7.78
2022-12-29T07:52:45.820Z,7.78
2022-12-29T07:53:47.365Z,7.68
2022-12-29T07:54:48.906Z,7.55
2022-12-29T07:55:50.485Z,7.54
2022-12-29T07:56:52.403Z,7.62
2022-12-29T07:57:55.331Z,7.70
2022-12-29T07:58:56.920Z,7.75
2022-12-29T07:59:58.619Z,7.78
2022-12-29T08:01:00.402Z,7.87
2022-12-29T08:02:02.214Z,7.89
2022-12-29T08:03:03.983Z,7.85
2022-12-29T08:04:06.434Z,7.83
2022-12-29T08:05:08.356Z,7.88
2022-12-29T08:06:11.632Z,7.92
2022-12-29T08:07:13.246Z,7.94
2022-12-29T08:08:14.803Z,7.96
2022-12-29T08:09:21.953Z,8.03
2022-12-29T08:10:24.689Z,8.10
2022-12-29T08:11:26.207Z,8.13
2022-12-29T08:12:27.832Z,8.19
2022-12-29T08:13:29.395Z,8.11
2022-12-29T08:14:31.049Z,8.11
2022-12-29T08:15:32.890Z,8.15
2022-12-29T08:16:34.591Z,8.14
2022-12-29T08:17:36.266Z,8.06
2022-12-29T08:18:37.819Z,7.77
2022-12-29T08:19:39.646Z,7.61
2022-12-29T08:20:41.578Z,7.46
2022-12-29T08:21:43.223Z,7.38
2022-12-29T08:22:44.732Z,7.36
2022-12-29T08:23:46.269Z,7.35
2022-12-29T08:24:47.896Z,7.28
2022-12-29T08:25:58.536Z,7.28
2022-12-29T08:27:06.281Z,7.22
2022-12-29T08:28:13.694Z,7.14
2022-12-29T08:29:15.269Z,7.20
2022-12-29T08:30:17.487Z,7.30
2022-12-29T08:31:19.161Z,7.29
2022-12-29T08:32:20.911Z,7.33
2022-12-29T08:33:22.510Z,7.45
2022-12-29T08:34:24.157Z,7.54
2022-12-29T08:35:25.876Z,7.62
2022-12-29T08:36:27.464Z,7.71
2022-12-29T08:37:31.294Z,7.78
2022-12-29T08:38:33.456Z,7.76
2022-12-29T08:39:35.457Z,7.70
2022-12-29T08:40:36.980Z,7.68
2022-12-29T08:41:38.579Z,7.69
2022-12-29T08:42:40.307Z,7.68
2022-12-29T08:43:41.881Z,7.74
2022-12-29T08:44:43.636Z,7.71
2022-12-29T08:45:45.246Z,7.67
2022-12-29T08:46:46.864Z,7.67
2022-12-29T08:47:48.446Z,7.73
2022-12-29T08:48:50.011Z,7.77
2022-12-29T08:49:51.559Z,7.82
2022-12-29T08:50:53.220Z,7.90
2022-12-29T08:51:54.887Z,8.02
2022-12-29T08:52:56.496Z,8.05
2022-12-29T08:53:58.161Z,8.09
2022-12-29T08:54:59.724Z,8.09
2022-12-29T08:56:05.144Z,8.01
2022-12-29T08:57:07.308Z,8.01
2022-12-29T08:58:08.896Z,8.01
2022-12-29T08:59:10.448Z,8.06
2022-12-29T09:00:12.364Z,8.03
2022-12-29T09:01:14.282Z,8.02
2022-12-29T09:02:22.060Z,8.13
2022-12-29T09:04:03.788Z,8.20
2022-12-29T09:04:48.111Z,8.19
2022-12-29T09:05:50.826Z,8.13
2022-12-29T09:06:52.392Z,8.10
2022-12-29T09:07:53.960Z,8.03
2022-12-29T09:08:56.472Z,8.05
2022-12-29T09:09:58.071Z,8.07
2022-12-29T09:11:11.828Z,8.13
2022-12-29T09:12:13.531Z,8.21
2022-12-29T09:13:16.453Z,8.21
2022-12-29T09:14:18.024Z,8.24
2022-12-29T09:15:19.543Z,8.22
2022-12-29T09:16:23.686Z,8.20
2022-12-29T09:17:44.563Z,8.31
2022-12-29T09:18:46.492Z,8.42
2022-12-29T09:19:48.121Z,8.47
2022-12-29T09:20:49.693Z,8.52
2022-12-29T09:21:51.237Z,8.64
2022-12-29T09:22:52.772Z,8.78
2022-12-29T09:23:54.359Z,8.86
2022-12-29T09:24:55.906Z,8.88
2022-12-29T09:25:57.789Z,8.90
2022-12-29T09:26:59.321Z,8.98
2022-12-29T09:28:00.912Z,9.04
2022-12-29T09:29:02.422Z,9.05
2022-12-29T09:30:05.427Z,8.94
2022-12-29T09:31:07.613Z,8.88
2022-12-29T09:32:13.922Z,8.90
2022-12-29T09:33:19.393Z,8.95
2022-12-29T09:34:20.980Z,9.14
2022-12-29T09:35:22.573Z,9.31
2022-12-29T09:36:24.102Z,9.45
2022-12-29T09:37:25.845Z,9.51
2022-12-29T09:38:28.424Z,9.52
2022-12-29T09:39:30.030Z,9.42
2022-12-29T09:40:34.219Z,9.37
2022-12-29T09:41:44.150Z,9.30
2022-12-29T09:42:59.170Z,9.24
2022-12-29T09:44:34.643Z,9.27
2022-12-29T09:45:44.540Z,9.40
2022-12-29T09:46:50.760Z,9.49
2022-12-29T09:47:52.961Z,9.52
2022-12-29T09:49:00.106Z,9.43
2022-12-29T09:50:12.282Z,9.33
2022-12-29T09:51:18.294Z,9.28
2022-12-29T09:52:32.444Z,9.25
2022-12-29T09:54:03.415Z,9.25
2022-12-29T09:55:14.344Z,9.25
2022-12-29T09:56:22.813Z,9.30
2022-12-29T09:57:37.049Z,9.34
2022-12-29T09:59:01.141Z,9.49
2022-12-29T10:00:13.925Z,9.61
2022-12-29T10:01:42.624Z,9.73
2022-12-29T10:02:50.104Z,9.73
2022-12-29T10:03:54.357Z,9.78
2022-12-29T10:04:55.993Z,9.86
2022-12-29T10:06:08.991Z,9.90
2022-12-29T10:07:31.954Z,9.94
2022-12-29T10:08:40.454Z,9.90
2022-12-29T10:10:11.196Z,9.79
2022-12-29T10:11:32.568Z,9.81
2022-12-29T10:12:48.624Z,9.89
2022-12-29T10:14:15.735Z,9.91
2022-12-29T10:16:00.925Z,9.91
2022-12-29T10:17:34.388Z,10.01
2022-12-29T10:18:38.689Z,10.10
2022-12-29T10:20:36.352Z,10.18
2022-12-29T10:22:11.685Z,10.12
2022-12-29T10:23:33.327Z,9.87
2022-12-29T10:24:38.815Z,9.94
2022-12-29T10:25:43.179Z,10.02
2022-12-29T10:26:46.839Z,10.09
2022-12-29T10:27:50.150Z,10.08
2022-12-29T10:28:54.874Z,10.01
2022-12-29T10:29:57.340Z,9.92
2022-12-29T10:31:06.754Z,9.94
2022-12-29T10:32:33.235Z,10.05
2022-12-29T10:33:41.521Z,10.07
2022-12-29T10:34:48.317Z,10.13
2022-12-29T10:35:51.108Z,10.18
2022-12-29T10:36:59.659Z,10.19
2022-12-29T10:38:13.180Z,9.88
2022-12-29T10:39:29.614Z,9.75
2022-12-29T10:40:58.738Z,9.80
2022-12-29T10:42:27.332Z,9.84
2022-12-29T10:43:38.327Z,9.91
2022-12-29T10:44:39.939Z,9.92
2022-12-29T10:45:41.637Z,10.00
2022-12-29T10:46:44.953Z,10.05
2022-12-29T10:48:00.673Z,10.09
2022-12-29T10:49:02.919Z,10.15
2022-12-29T10:50:05.650Z,10.20
2022-12-29T10:51:09.641Z,10.22
2022-12-29T10:52:12.828Z,10.22
2022-12-29T10:53:22.972Z,10.31
2022-12-29T10:54:34.384Z,10.34
2022-12-29T10:55:39.172Z,10.45
2022-12-29T10:56:46.035Z,10.48
2022-12-29T10:57:48.785Z,10.40
2022-12-29T10:58:51.687Z,10.44
2022-12-29T10:59:53.336Z,10.50
2022-12-29T11:00:55.885Z,10.51
2022-12-29T11:02:12.824Z,10.62
2022-12-29T11:03:27.949Z,10.75
2022-12-29T11:04:54.169Z,10.83
2022-12-29T11:06:22.472Z,10.87
2022-12-29T11:07:27.270Z,10.88
2022-12-29T11:08:42.057Z,10.94
2022-12-29T11:09:44.510Z,11.01
2022-12-29T11:10:47.242Z,10.99
2022-12-29T11:11:48.885Z,10.97
2022-12-29T11:12:58.013Z,11.03
2022-12-29T11:14:26.966Z,11.11
2022-12-29T11:15:28.902Z,11.19
2022-12-29T11:16:35.848Z,11.23
2022-12-29T11:17:57.109Z,11.25
2022-12-29T11:18:59.408Z,11.25
2022-12-29T11:20:28.356Z,11.33
2022-12-29T11:21:41.434Z,11.25
2022-12-29T11:22:45.223Z,11.23
2022-12-29T11:23:57.385Z,11.25
2022-12-29T11:25:11.267Z,11.38
2022-12-29T11:26:23.905Z,11.46
2022-12-29T11:27:27.335Z,11.50
2022-12-29T11:28:31.655Z,11.52
2022-12-29T11:29:43.863Z,11.53
2022-12-29T11:30:45.459Z,11.55
2022-12-29T11:31:52.795Z,11.63
2022-12-29T11:32:56.312Z,11.62
2022-12-29T11:33:57.888Z,11.60
2022-12-29T11:35:00.131Z,11.62
2022-12-29T11:36:14.945Z,11.66
2022-12-29T11:37:28.141Z,11.69
2022-12-29T11:38:37.134Z,11.76
2022-12-29T11:39:50.943Z,11.81
2022-12-29T11:40:52.868Z,11.86
2022-12-29T11:41:55.007Z,11.91
2022-12-29T11:43:03.590Z,11.93
2022-12-29T11:44:06.858Z,11.89
2022-12-29T11:45:17.560Z,11.86
2022-12-29T11:46:24.864Z,11.82
2022-12-29T11:47:32.926Z,11.91
2022-12-29T11:48:41.610Z,12.05
2022-12-29T11:49:51.204Z,12.03
2022-12-29T11:51:01.966Z,12.04
2022-12-29T11:52:03.736Z,12.00
2022-12-29T11:53:28.002Z,11.93
2022-12-29T11:54:37.240Z,11.95
2022-12-29T11:55:38.870Z,11.93
2022-12-29T11:56:43.472Z,12.03
2022-12-29T11:57:45.984Z,12.03
2022-12-29T11:58:50.380Z,11.95
2022-12-29T11:59:57.142Z,11.93
2022-12-29T12:01:03.385Z,12.00
2022-12-29T12:02:16.138Z,11.99
2022-12-29T12:03:23.759Z,12.01
2022-12-29T12:04:35.321Z,12.08
2022-12-29T12:05:46.458Z,12.07
2022-12-29T12:07:10.065Z,12.13
2022-12-29T12:08:24.373Z,12.16
2022-12-29T12:09:35.550Z,12.23
2022-12-29T12:10:45.909Z,12.26
2022-12-29T12:11:48.233Z,12.26
2022-12-29T12:12:57.398Z,12.30
2022-12-29T12:14:13.013Z,12.31
2022-12-29T12:15:23.115Z,12.36
2022-12-29T12:16:40.841Z,12.43
2022-12-29T12:17:56.497Z,12.27
2022-12-29T12:19:04.909Z,12.26
2022-12-29T12:20:19.231Z,12.38
2022-12-29T12:21:45.433Z,12.34
2022-12-29T12:23:06.718Z,12.33
2022-12-29T12:24:40.377Z,12.27
2022-12-29T12:25:53.092Z,12.26
2022-12-29T12:27:20.428Z,12.26
2022-12-29T12:28:36.970Z,12.14
2022-12-29T12:29:56.398Z,12.04
2022-12-29T12:31:01.042Z,12.06
2022-12-29T12:32:16.197Z,12.14
2022-12-29T12:33:28.975Z,12.21
2022-12-29T12:34:38.092Z,12.15
2022-12-29T12:36:03.809Z,12.09
2022-12-29T12:37:53.207Z,12.03
2022-12-29T12:39:12.236Z,12.08
2022-12-29T12:40:19.943Z,12.13
2022-12-29T12:41:27.340Z,12.17
2022-12-29T12:42:44.171Z,12.14
2022-12-29T12:43:52.041Z,12.13
2022-12-29T12:45:21.041Z,12.13
2022-12-29T12:46:50.177Z,12.14
2022-12-29T12:47:59.440Z,12.13
2022-12-29T12:49:35.353Z,12.07
2022-12-29T12:51:08.218Z,12.01
2022-12-29T12:52:16.041Z,11.99
2022-12-29T12:53:26.330Z,11.86
2022-12-29T12:55:11.925Z,11.86
2022-12-29T12:56:25.739Z,11.88
2022-12-29T12:57:48.910Z,11.74
2022-12-29T12:58:50.426Z,11.71
2022-12-29T13:00:01.946Z,11.75
2022-12-29T13:01:23.720Z,11.64
2022-12-29T13:02:59.282Z,11.59
2022-12-29T13:04:37.784Z,11.59
2022-12-29T13:05:56.532Z,11.47
2022-12-29T13:07:35.327Z,11.41
2022-12-29T13:09:03.047Z,11.38
2022-12-29T13:10:34.083Z,11.36
2022-12-29T13:11:38.233Z,11.37
2022-12-29T13:12:56.547Z,11.42
2022-12-29T13:14:22.525Z,11.47
2022-12-29T13:15:30.042Z,11.48
2022-12-29T13:16:37.557Z,11.56
2022-12-29T13:17:54.910Z,11.59
2022-12-29T13:19:11.641Z,11.55
2022-12-29T13:20:40.345Z,11.49
2022-12-29T13:22:03.879Z,11.40
2022-12-29T13:23:24.437Z,11.39
2022-12-29T13:24:41.289Z,11.40
2022-12-29T13:25:51.438Z,11.35
2022-12-29T13:27:19.452Z,11.32
2022-12-29T13:28:50.812Z,11.36
2022-12-29T13:30:11.167Z,11.39
2022-12-29T13:31:17.017Z,11.41
2022-12-29T13:32:35.237Z,11.42
2022-12-29T13:33:46.310Z,11.42
2022-12-29T13:34:54.609Z,11.40
2022-12-29T13:36:02.472Z,11.43
2022-12-29T13:37:15.757Z,11.45
2022-12-29T13:38:40.336Z,11.53
2022-12-29T13:39:55.574Z,11.52
2022-12-29T13:41:03.191Z,11.51
2022-12-29T13:42:06.351Z,11.49
2022-12-29T13:43:08.311Z,11.49
2022-12-29T13:44:17.465Z,11.52
2022-12-29T13:45:25.830Z,11.51
2022-12-29T13:46:47.724Z,11.50
2022-12-29T13:47:53.551Z,11.46
2022-12-29T13:49:07.583Z,11.49
2022-12-29T13:50:22.045Z,11.48
2022-12-29T13:51:28.107Z,11.47
2022-12-29T13:52:44.027Z,11.49
2022-12-29T13:54:13.318Z,11.51
2022-12-29T13:55:41.655Z,11.58
2022-12-29T13:57:09.557Z,11.60
2022-12-29T13:58:33.181Z,11.64
2022-12-29T13:59:45.424Z,11.62
2022-12-29T14:00:59.395Z,11.58
2022-12-29T14:02:10.933Z,11.63
2022-12-29T14:03:31.298Z,11.59
2022-12-29T14:04:35.963Z,11.59
2022-12-29T14:05:37.515Z,11.61
2022-12-29T14:06:41.670Z,11.59
2022-12-29T14:07:43.525Z,11.61
2022-12-29T14:08:46.088Z,11.66
2022-12-29T14:09:52.905Z,11.67
2022-12-29T14:10:54.657Z,11.63
2022-12-29T14:11:56.215Z,11.69
2022-12-29T14:13:04.196Z,11.69
2022-12-29T14:14:19.941Z,11.67
2022-12-29T14:15:25.327Z,11.62
2022-12-29T14:16:35.555Z,11.51
2022-12-29T14:17:38.837Z,11.46
2022-12-29T14:18:44.903Z,11.43
2022-12-29T14:19:47.188Z,11.37
2022-12-29T14:21:12.816Z,11.31
2022-12-29T14:22:14.372Z,11.27
2022-12-29T14:23:26.561Z,11.21
2022-12-29T14:24:39.806Z,11.18
2022-12-29T14:26:06.362Z,11.15
2022-12-29T14:27:10.878Z,11.11
2022-12-29T14:28:26.831Z,11.09
2022-12-29T14:29:31.122Z,11.06
2022-12-29T14:30:50.692Z,11.03
2022-12-29T14:31:53.817Z,11.01
2022-12-29T14:33:04.668Z,11.03
2022-12-29T14:34:12.195Z,11.03
2022-12-29T14:35:42.910Z,11.06
2022-12-29T14:36:59.691Z,11.02
2022-12-29T14:38:22.900Z,10.95
2022-12-29T14:39:45.697Z,10.91
2022-12-29T14:40:49.194Z,10.88
2022-12-29T14:42:00.923Z,10.86
2022-12-29T14:43:02.473Z,10.85
2022-12-29T14:44:20.428Z,10.94
2022-12-29T14:45:21.942Z,10.90
2022-12-29T14:46:24.143Z,10.83
2022-12-29T14:47:34.811Z,10.77
2022-12-29T14:48:40.494Z,10.75
2022-12-29T14:49:45.453Z,10.73
2022-12-29T14:50:47.243Z,10.72
2022-12-29T14:51:52.033Z,10.72
2022-12-29T14:53:04.151Z,10.72
2022-12-29T14:54:39.790Z,10.64